<?xml version="1.0" encoding="UTF-8" standalone="no" ?>
<gpx xmlns="http://www.topografix.com/GPX/1/1" xmlns:xsi="http://www.w3.org/2001/XMLSchema-instance" xsi:schemaLocation="http://www.topografix.com/GPX/1/1 http://www.topografix.com/GPX/1/1/gpx.xsd" version="1.1" creator="VisuGPX - https://www.visugpx.com">
  <metadata>
    <name>Sardaigne Corse</name>
    <desc><![CDATA[En octobre 2017 au départ de Portisco
6 membres d'équipage avec
Julien Bruno Frédéric Benjamin Sébastien 
embarqué sur Dufour 412]]></desc>
  </metadata>
  <trk>
    <name><![CDATA[Tracé actuel: 13 OCT 2017 10:10]]></name>
    <trkseg>
      <trkpt lat="41.21206" lon="9.40476">
        <ele>-0.34</ele>
        <time>2017-10-13T09:10:19Z</time>
      </trkpt>
      <trkpt lat="41.21198" lon="9.40481">
        <ele>12.63</ele>
        <time>2017-10-13T09:10:43Z</time>
      </trkpt>
      <trkpt lat="41.21197" lon="9.40487">
        <ele>14.08</ele>
        <time>2017-10-13T09:11:05Z</time>
      </trkpt>
      <trkpt lat="41.21199" lon="9.40487">
        <ele>10.23</ele>
        <time>2017-10-13T09:11:32Z</time>
      </trkpt>
      <trkpt lat="41.21197" lon="9.4048">
        <ele>12.63</ele>
        <time>2017-10-13T09:11:46Z</time>
      </trkpt>
      <trkpt lat="41.21195" lon="9.40474">
        <ele>12.63</ele>
        <time>2017-10-13T09:12:02Z</time>
      </trkpt>
      <trkpt lat="41.21198" lon="9.40483">
        <ele>12.63</ele>
        <time>2017-10-13T09:12:16Z</time>
      </trkpt>
      <trkpt lat="41.21198" lon="9.40484">
        <ele>14.08</ele>
        <time>2017-10-13T09:12:43Z</time>
      </trkpt>
      <trkpt lat="41.21199" lon="9.40486">
        <ele>12.63</ele>
        <time>2017-10-13T09:13:20Z</time>
      </trkpt>
      <trkpt lat="41.21199" lon="9.40485">
        <ele>13.12</ele>
        <time>2017-10-13T09:13:50Z</time>
      </trkpt>
      <trkpt lat="41.21199" lon="9.40486">
        <ele>10.71</ele>
        <time>2017-10-13T09:14:19Z</time>
      </trkpt>
      <trkpt lat="41.21199" lon="9.40484">
        <ele>9.75</ele>
        <time>2017-10-13T09:14:44Z</time>
      </trkpt>
      <trkpt lat="41.21198" lon="9.40477">
        <ele>10.23</ele>
        <time>2017-10-13T09:15:08Z</time>
      </trkpt>
      <trkpt lat="41.21196" lon="9.40471">
        <ele>10.23</ele>
        <time>2017-10-13T09:15:35Z</time>
      </trkpt>
      <trkpt lat="41.21195" lon="9.40467">
        <ele>9.27</ele>
        <time>2017-10-13T09:15:57Z</time>
      </trkpt>
      <trkpt lat="41.21182" lon="9.40453">
        <ele>6.87</ele>
        <time>2017-10-13T09:16:20Z</time>
      </trkpt>
      <trkpt lat="41.21177" lon="9.40451">
        <ele>6.39</ele>
        <time>2017-10-13T09:16:27Z</time>
      </trkpt>
      <trkpt lat="41.21157" lon="9.40457">
        <ele>4.94</ele>
        <time>2017-10-13T09:16:51Z</time>
      </trkpt>
      <trkpt lat="41.21129" lon="9.40469">
        <ele>4.94</ele>
        <time>2017-10-13T09:17:20Z</time>
      </trkpt>
      <trkpt lat="41.21106" lon="9.4048">
        <ele>4.46</ele>
        <time>2017-10-13T09:17:44Z</time>
      </trkpt>
      <trkpt lat="41.21088" lon="9.40493">
        <ele>4.94</ele>
        <time>2017-10-13T09:18:06Z</time>
      </trkpt>
      <trkpt lat="41.2108" lon="9.4048">
        <ele>5.91</ele>
        <time>2017-10-13T09:18:27Z</time>
      </trkpt>
      <trkpt lat="41.21078" lon="9.40475">
        <ele>4.94</ele>
        <time>2017-10-13T09:18:48Z</time>
      </trkpt>
      <trkpt lat="41.21071" lon="9.40461">
        <ele>4.94</ele>
        <time>2017-10-13T09:19:13Z</time>
      </trkpt>
      <trkpt lat="41.2107" lon="9.40457">
        <ele>4.94</ele>
        <time>2017-10-13T09:19:35Z</time>
      </trkpt>
      <trkpt lat="41.2107" lon="9.40458">
        <ele>4.94</ele>
        <time>2017-10-13T09:19:52Z</time>
      </trkpt>
      <trkpt lat="41.21069" lon="9.40461">
        <ele>4.94</ele>
        <time>2017-10-13T09:20:20Z</time>
      </trkpt>
      <trkpt lat="41.21069" lon="9.40461">
        <ele>4.94</ele>
        <time>2017-10-13T09:20:41Z</time>
      </trkpt>
      <trkpt lat="41.21069" lon="9.4046">
        <ele>4.94</ele>
        <time>2017-10-13T09:21:00Z</time>
      </trkpt>
      <trkpt lat="41.21068" lon="9.40459">
        <ele>4.94</ele>
        <time>2017-10-13T09:21:17Z</time>
      </trkpt>
      <trkpt lat="41.21064" lon="9.40458">
        <ele>3.02</ele>
        <time>2017-10-13T09:21:57Z</time>
      </trkpt>
      <trkpt lat="41.21064" lon="9.40459">
        <ele>3.5</ele>
        <time>2017-10-13T09:22:38Z</time>
      </trkpt>
      <trkpt lat="41.21064" lon="9.40459">
        <ele>3.5</ele>
        <time>2017-10-13T09:23:11Z</time>
      </trkpt>
      <trkpt lat="41.21063" lon="9.40458">
        <ele>3.98</ele>
        <time>2017-10-13T09:23:52Z</time>
      </trkpt>
      <trkpt lat="41.21063" lon="9.40459">
        <ele>3.98</ele>
        <time>2017-10-13T09:24:34Z</time>
      </trkpt>
      <trkpt lat="41.21063" lon="9.40458">
        <ele>2.54</ele>
        <time>2017-10-13T09:25:14Z</time>
      </trkpt>
      <trkpt lat="41.21064" lon="9.40458">
        <ele>2.06</ele>
        <time>2017-10-13T09:25:52Z</time>
      </trkpt>
      <trkpt lat="41.21064" lon="9.40458">
        <ele>1.58</ele>
        <time>2017-10-13T09:26:29Z</time>
      </trkpt>
      <trkpt lat="41.21064" lon="9.40458">
        <ele>1.58</ele>
        <time>2017-10-13T09:27:12Z</time>
      </trkpt>
      <trkpt lat="41.21064" lon="9.40457">
        <ele>1.58</ele>
        <time>2017-10-13T09:27:40Z</time>
      </trkpt>
      <trkpt lat="41.21064" lon="9.40458">
        <ele>1.58</ele>
        <time>2017-10-13T09:28:10Z</time>
      </trkpt>
      <trkpt lat="41.21065" lon="9.40469">
        <ele>2.06</ele>
        <time>2017-10-13T09:28:36Z</time>
      </trkpt>
      <trkpt lat="41.21062" lon="9.40479">
        <ele>2.54</ele>
        <time>2017-10-13T09:28:44Z</time>
      </trkpt>
      <trkpt lat="41.2106" lon="9.40511">
        <ele>2.06</ele>
        <time>2017-10-13T09:29:13Z</time>
      </trkpt>
      <trkpt lat="41.2106" lon="9.40506">
        <ele>3.02</ele>
        <time>2017-10-13T09:29:39Z</time>
      </trkpt>
      <trkpt lat="41.21067" lon="9.40502">
        <ele>4.46</ele>
        <time>2017-10-13T09:30:08Z</time>
      </trkpt>
      <trkpt lat="41.21046" lon="9.40524">
        <ele>3.98</ele>
        <time>2017-10-13T09:30:30Z</time>
      </trkpt>
      <trkpt lat="41.20999" lon="9.40528">
        <ele>3.02</ele>
        <time>2017-10-13T09:30:55Z</time>
      </trkpt>
      <trkpt lat="41.20969" lon="9.40507">
        <ele>2.54</ele>
        <time>2017-10-13T09:31:17Z</time>
      </trkpt>
      <trkpt lat="41.20946" lon="9.40475">
        <ele>3.02</ele>
        <time>2017-10-13T09:31:45Z</time>
      </trkpt>
      <trkpt lat="41.20931" lon="9.40447">
        <ele>3.02</ele>
        <time>2017-10-13T09:32:11Z</time>
      </trkpt>
      <trkpt lat="41.20919" lon="9.40423">
        <ele>2.54</ele>
        <time>2017-10-13T09:32:35Z</time>
      </trkpt>
      <trkpt lat="41.20904" lon="9.404">
        <ele>2.54</ele>
        <time>2017-10-13T09:33:00Z</time>
      </trkpt>
      <trkpt lat="41.20884" lon="9.40398">
        <ele>3.02</ele>
        <time>2017-10-13T09:33:20Z</time>
      </trkpt>
      <trkpt lat="41.20881" lon="9.40439">
        <ele>3.98</ele>
        <time>2017-10-13T09:33:43Z</time>
      </trkpt>
      <trkpt lat="41.20896" lon="9.40489">
        <ele>3.98</ele>
        <time>2017-10-13T09:34:09Z</time>
      </trkpt>
      <trkpt lat="41.20923" lon="9.40531">
        <ele>3.5</ele>
        <time>2017-10-13T09:34:35Z</time>
      </trkpt>
      <trkpt lat="41.20949" lon="9.40576">
        <ele>3.5</ele>
        <time>2017-10-13T09:35:02Z</time>
      </trkpt>
      <trkpt lat="41.20969" lon="9.40621">
        <ele>3.98</ele>
        <time>2017-10-13T09:35:26Z</time>
      </trkpt>
      <trkpt lat="41.20991" lon="9.40668">
        <ele>3.5</ele>
        <time>2017-10-13T09:35:52Z</time>
      </trkpt>
      <trkpt lat="41.21005" lon="9.40707">
        <ele>3.98</ele>
        <time>2017-10-13T09:36:13Z</time>
      </trkpt>
      <trkpt lat="41.21018" lon="9.40754">
        <ele>3.5</ele>
        <time>2017-10-13T09:36:36Z</time>
      </trkpt>
      <trkpt lat="41.21029" lon="9.408">
        <ele>3.98</ele>
        <time>2017-10-13T09:36:57Z</time>
      </trkpt>
      <trkpt lat="41.21042" lon="9.40866">
        <ele>4.46</ele>
        <time>2017-10-13T09:37:26Z</time>
      </trkpt>
      <trkpt lat="41.21052" lon="9.4092">
        <ele>3.98</ele>
        <time>2017-10-13T09:37:47Z</time>
      </trkpt>
      <trkpt lat="41.21067" lon="9.40984">
        <ele>3.5</ele>
        <time>2017-10-13T09:38:10Z</time>
      </trkpt>
      <trkpt lat="41.21076" lon="9.41076">
        <ele>5.42</ele>
        <time>2017-10-13T09:38:40Z</time>
      </trkpt>
      <trkpt lat="41.21082" lon="9.41158">
        <ele>5.91</ele>
        <time>2017-10-13T09:39:07Z</time>
      </trkpt>
      <trkpt lat="41.21075" lon="9.41246">
        <ele>2.54</ele>
        <time>2017-10-13T09:39:36Z</time>
      </trkpt>
      <trkpt lat="41.21047" lon="9.41349">
        <ele>3.98</ele>
        <time>2017-10-13T09:40:11Z</time>
      </trkpt>
      <trkpt lat="41.2102" lon="9.41442">
        <ele>3.5</ele>
        <time>2017-10-13T09:40:43Z</time>
      </trkpt>
      <trkpt lat="41.20988" lon="9.41527">
        <ele>4.46</ele>
        <time>2017-10-13T09:41:13Z</time>
      </trkpt>
      <trkpt lat="41.20963" lon="9.41601">
        <ele>3.98</ele>
        <time>2017-10-13T09:41:39Z</time>
      </trkpt>
      <trkpt lat="41.20936" lon="9.41702">
        <ele>3.02</ele>
        <time>2017-10-13T09:42:12Z</time>
      </trkpt>
      <trkpt lat="41.20915" lon="9.41789">
        <ele>3.5</ele>
        <time>2017-10-13T09:42:41Z</time>
      </trkpt>
      <trkpt lat="41.20881" lon="9.41899">
        <ele>4.46</ele>
        <time>2017-10-13T09:43:18Z</time>
      </trkpt>
      <trkpt lat="41.20851" lon="9.41973">
        <ele>3.5</ele>
        <time>2017-10-13T09:43:44Z</time>
      </trkpt>
      <trkpt lat="41.20812" lon="9.42062">
        <ele>3.02</ele>
        <time>2017-10-13T09:44:16Z</time>
      </trkpt>
      <trkpt lat="41.20802" lon="9.42102">
        <ele>3.98</ele>
        <time>2017-10-13T09:44:32Z</time>
      </trkpt>
      <trkpt lat="41.20829" lon="9.42134">
        <ele>4.46</ele>
        <time>2017-10-13T09:44:57Z</time>
      </trkpt>
      <trkpt lat="41.2086" lon="9.4215">
        <ele>3.98</ele>
        <time>2017-10-13T09:45:25Z</time>
      </trkpt>
      <trkpt lat="41.209" lon="9.42163">
        <ele>3.98</ele>
        <time>2017-10-13T09:46:02Z</time>
      </trkpt>
      <trkpt lat="41.20902" lon="9.42141">
        <ele>3.98</ele>
        <time>2017-10-13T09:46:20Z</time>
      </trkpt>
      <trkpt lat="41.20874" lon="9.42139">
        <ele>4.46</ele>
        <time>2017-10-13T09:46:42Z</time>
      </trkpt>
      <trkpt lat="41.20827" lon="9.42156">
        <ele>3.98</ele>
        <time>2017-10-13T09:47:19Z</time>
      </trkpt>
      <trkpt lat="41.20786" lon="9.42178">
        <ele>4.46</ele>
        <time>2017-10-13T09:48:01Z</time>
      </trkpt>
      <trkpt lat="41.20749" lon="9.42201">
        <ele>3.98</ele>
        <time>2017-10-13T09:48:38Z</time>
      </trkpt>
      <trkpt lat="41.20719" lon="9.42221">
        <ele>3.98</ele>
        <time>2017-10-13T09:49:12Z</time>
      </trkpt>
      <trkpt lat="41.20687" lon="9.4224">
        <ele>3.5</ele>
        <time>2017-10-13T09:49:47Z</time>
      </trkpt>
      <trkpt lat="41.20654" lon="9.42254">
        <ele>3.5</ele>
        <time>2017-10-13T09:50:26Z</time>
      </trkpt>
      <trkpt lat="41.2062" lon="9.42268">
        <ele>4.46</ele>
        <time>2017-10-13T09:51:04Z</time>
      </trkpt>
      <trkpt lat="41.20595" lon="9.42281">
        <ele>4.46</ele>
        <time>2017-10-13T09:51:30Z</time>
      </trkpt>
      <trkpt lat="41.20566" lon="9.42298">
        <ele>3.98</ele>
        <time>2017-10-13T09:52:02Z</time>
      </trkpt>
      <trkpt lat="41.20537" lon="9.42318">
        <ele>3.5</ele>
        <time>2017-10-13T09:52:40Z</time>
      </trkpt>
      <trkpt lat="41.20504" lon="9.42339">
        <ele>3.5</ele>
        <time>2017-10-13T09:53:15Z</time>
      </trkpt>
      <trkpt lat="41.20474" lon="9.4236">
        <ele>3.98</ele>
        <time>2017-10-13T09:53:48Z</time>
      </trkpt>
      <trkpt lat="41.2045" lon="9.42381">
        <ele>3.98</ele>
        <time>2017-10-13T09:54:19Z</time>
      </trkpt>
      <trkpt lat="41.2042" lon="9.42398">
        <ele>3.5</ele>
        <time>2017-10-13T09:54:59Z</time>
      </trkpt>
      <trkpt lat="41.20396" lon="9.42414">
        <ele>2.54</ele>
        <time>2017-10-13T09:55:36Z</time>
      </trkpt>
      <trkpt lat="41.20374" lon="9.42429">
        <ele>2.54</ele>
        <time>2017-10-13T09:56:13Z</time>
      </trkpt>
      <trkpt lat="41.20349" lon="9.42447">
        <ele>3.02</ele>
        <time>2017-10-13T09:56:51Z</time>
      </trkpt>
      <trkpt lat="41.20325" lon="9.42462">
        <ele>3.02</ele>
        <time>2017-10-13T09:57:25Z</time>
      </trkpt>
      <trkpt lat="41.20295" lon="9.42485">
        <ele>2.06</ele>
        <time>2017-10-13T09:58:06Z</time>
      </trkpt>
      <trkpt lat="41.2026" lon="9.42509">
        <ele>1.1</ele>
        <time>2017-10-13T09:58:48Z</time>
      </trkpt>
      <trkpt lat="41.20217" lon="9.42551">
        <ele>0.62</ele>
        <time>2017-10-13T09:59:27Z</time>
      </trkpt>
      <trkpt lat="41.20186" lon="9.42564">
        <ele>2.54</ele>
        <time>2017-10-13T09:59:50Z</time>
      </trkpt>
      <trkpt lat="41.20151" lon="9.42594">
        <ele>2.54</ele>
        <time>2017-10-13T10:00:22Z</time>
      </trkpt>
      <trkpt lat="41.20113" lon="9.42628">
        <ele>1.58</ele>
        <time>2017-10-13T10:00:54Z</time>
      </trkpt>
      <trkpt lat="41.20066" lon="9.42671">
        <ele>2.06</ele>
        <time>2017-10-13T10:01:34Z</time>
      </trkpt>
      <trkpt lat="41.20035" lon="9.42708">
        <ele>2.54</ele>
        <time>2017-10-13T10:02:05Z</time>
      </trkpt>
      <trkpt lat="41.19997" lon="9.42748">
        <ele>3.02</ele>
        <time>2017-10-13T10:02:44Z</time>
      </trkpt>
      <trkpt lat="41.19974" lon="9.42781">
        <ele>2.54</ele>
        <time>2017-10-13T10:03:14Z</time>
      </trkpt>
      <trkpt lat="41.19944" lon="9.42823">
        <ele>3.5</ele>
        <time>2017-10-13T10:03:45Z</time>
      </trkpt>
      <trkpt lat="41.19915" lon="9.42852">
        <ele>3.02</ele>
        <time>2017-10-13T10:04:12Z</time>
      </trkpt>
      <trkpt lat="41.19894" lon="9.42878">
        <ele>3.02</ele>
        <time>2017-10-13T10:04:38Z</time>
      </trkpt>
      <trkpt lat="41.19879" lon="9.429">
        <ele>3.5</ele>
        <time>2017-10-13T10:05:00Z</time>
      </trkpt>
      <trkpt lat="41.19856" lon="9.42916">
        <ele>3.98</ele>
        <time>2017-10-13T10:05:26Z</time>
      </trkpt>
      <trkpt lat="41.19828" lon="9.42928">
        <ele>4.94</ele>
        <time>2017-10-13T10:05:55Z</time>
      </trkpt>
      <trkpt lat="41.19793" lon="9.42937">
        <ele>4.46</ele>
        <time>2017-10-13T10:06:25Z</time>
      </trkpt>
      <trkpt lat="41.19748" lon="9.42947">
        <ele>3.98</ele>
        <time>2017-10-13T10:07:00Z</time>
      </trkpt>
      <trkpt lat="41.19708" lon="9.42953">
        <ele>3.5</ele>
        <time>2017-10-13T10:07:31Z</time>
      </trkpt>
      <trkpt lat="41.19657" lon="9.42961">
        <ele>3.98</ele>
        <time>2017-10-13T10:08:13Z</time>
      </trkpt>
      <trkpt lat="41.19616" lon="9.42966">
        <ele>3.98</ele>
        <time>2017-10-13T10:08:47Z</time>
      </trkpt>
      <trkpt lat="41.19576" lon="9.42974">
        <ele>4.46</ele>
        <time>2017-10-13T10:09:21Z</time>
      </trkpt>
      <trkpt lat="41.19538" lon="9.42978">
        <ele>3.02</ele>
        <time>2017-10-13T10:09:53Z</time>
      </trkpt>
      <trkpt lat="41.19507" lon="9.42985">
        <ele>3.5</ele>
        <time>2017-10-13T10:10:22Z</time>
      </trkpt>
      <trkpt lat="41.19472" lon="9.42988">
        <ele>3.98</ele>
        <time>2017-10-13T10:10:56Z</time>
      </trkpt>
      <trkpt lat="41.19439" lon="9.42993">
        <ele>3.5</ele>
        <time>2017-10-13T10:11:27Z</time>
      </trkpt>
      <trkpt lat="41.19412" lon="9.42997">
        <ele>3.5</ele>
        <time>2017-10-13T10:11:53Z</time>
      </trkpt>
      <trkpt lat="41.1938" lon="9.43002">
        <ele>3.02</ele>
        <time>2017-10-13T10:12:25Z</time>
      </trkpt>
      <trkpt lat="41.19354" lon="9.43006">
        <ele>3.5</ele>
        <time>2017-10-13T10:12:54Z</time>
      </trkpt>
      <trkpt lat="41.19328" lon="9.43011">
        <ele>4.46</ele>
        <time>2017-10-13T10:13:23Z</time>
      </trkpt>
      <trkpt lat="41.19278" lon="9.43017">
        <ele>3.98</ele>
        <time>2017-10-13T10:13:50Z</time>
      </trkpt>
      <trkpt lat="41.19205" lon="9.43028">
        <ele>3.02</ele>
        <time>2017-10-13T10:14:23Z</time>
      </trkpt>
      <trkpt lat="41.19137" lon="9.43037">
        <ele>3.02</ele>
        <time>2017-10-13T10:14:53Z</time>
      </trkpt>
      <trkpt lat="41.19062" lon="9.43048">
        <ele>2.06</ele>
        <time>2017-10-13T10:15:26Z</time>
      </trkpt>
      <trkpt lat="41.1899" lon="9.43057">
        <ele>3.02</ele>
        <time>2017-10-13T10:15:57Z</time>
      </trkpt>
      <trkpt lat="41.18915" lon="9.43067">
        <ele>3.5</ele>
        <time>2017-10-13T10:16:28Z</time>
      </trkpt>
      <trkpt lat="41.18805" lon="9.43081">
        <ele>4.46</ele>
        <time>2017-10-13T10:17:05Z</time>
      </trkpt>
      <trkpt lat="41.18698" lon="9.43095">
        <ele>3.5</ele>
        <time>2017-10-13T10:17:41Z</time>
      </trkpt>
      <trkpt lat="41.18589" lon="9.43109">
        <ele>3.5</ele>
        <time>2017-10-13T10:18:17Z</time>
      </trkpt>
      <trkpt lat="41.18493" lon="9.43122">
        <ele>3.98</ele>
        <time>2017-10-13T10:18:49Z</time>
      </trkpt>
      <trkpt lat="41.18414" lon="9.43134">
        <ele>4.94</ele>
        <time>2017-10-13T10:19:15Z</time>
      </trkpt>
      <trkpt lat="41.18313" lon="9.43145">
        <ele>3.98</ele>
        <time>2017-10-13T10:19:48Z</time>
      </trkpt>
      <trkpt lat="41.18202" lon="9.4316">
        <ele>3.98</ele>
        <time>2017-10-13T10:20:25Z</time>
      </trkpt>
      <trkpt lat="41.18101" lon="9.43173">
        <ele>3.98</ele>
        <time>2017-10-13T10:20:59Z</time>
      </trkpt>
      <trkpt lat="41.18029" lon="9.43195">
        <ele>3.5</ele>
        <time>2017-10-13T10:21:24Z</time>
      </trkpt>
      <trkpt lat="41.17962" lon="9.43235">
        <ele>4.46</ele>
        <time>2017-10-13T10:21:49Z</time>
      </trkpt>
      <trkpt lat="41.17897" lon="9.43293">
        <ele>4.94</ele>
        <time>2017-10-13T10:22:16Z</time>
      </trkpt>
      <trkpt lat="41.17834" lon="9.43349">
        <ele>3.98</ele>
        <time>2017-10-13T10:22:42Z</time>
      </trkpt>
      <trkpt lat="41.17787" lon="9.43396">
        <ele>3.98</ele>
        <time>2017-10-13T10:23:02Z</time>
      </trkpt>
      <trkpt lat="41.17726" lon="9.43453">
        <ele>3.02</ele>
        <time>2017-10-13T10:23:28Z</time>
      </trkpt>
      <trkpt lat="41.17661" lon="9.43515">
        <ele>2.54</ele>
        <time>2017-10-13T10:23:55Z</time>
      </trkpt>
      <trkpt lat="41.1761" lon="9.43564">
        <ele>3.5</ele>
        <time>2017-10-13T10:24:17Z</time>
      </trkpt>
      <trkpt lat="41.1756" lon="9.43614">
        <ele>3.02</ele>
        <time>2017-10-13T10:24:38Z</time>
      </trkpt>
      <trkpt lat="41.17517" lon="9.43672">
        <ele>4.46</ele>
        <time>2017-10-13T10:24:59Z</time>
      </trkpt>
      <trkpt lat="41.17464" lon="9.43744">
        <ele>4.46</ele>
        <time>2017-10-13T10:25:25Z</time>
      </trkpt>
      <trkpt lat="41.1742" lon="9.43826">
        <ele>4.46</ele>
        <time>2017-10-13T10:25:51Z</time>
      </trkpt>
      <trkpt lat="41.17387" lon="9.43887">
        <ele>4.46</ele>
        <time>2017-10-13T10:26:10Z</time>
      </trkpt>
      <trkpt lat="41.17355" lon="9.43948">
        <ele>4.94</ele>
        <time>2017-10-13T10:26:29Z</time>
      </trkpt>
      <trkpt lat="41.17325" lon="9.44005">
        <ele>4.94</ele>
        <time>2017-10-13T10:26:47Z</time>
      </trkpt>
      <trkpt lat="41.17295" lon="9.44063">
        <ele>4.94</ele>
        <time>2017-10-13T10:27:05Z</time>
      </trkpt>
      <trkpt lat="41.17265" lon="9.44121">
        <ele>4.94</ele>
        <time>2017-10-13T10:27:23Z</time>
      </trkpt>
      <trkpt lat="41.17233" lon="9.44181">
        <ele>4.46</ele>
        <time>2017-10-13T10:27:42Z</time>
      </trkpt>
      <trkpt lat="41.17198" lon="9.44248">
        <ele>3.5</ele>
        <time>2017-10-13T10:28:03Z</time>
      </trkpt>
      <trkpt lat="41.17148" lon="9.4434">
        <ele>3.5</ele>
        <time>2017-10-13T10:28:32Z</time>
      </trkpt>
      <trkpt lat="41.17098" lon="9.44435">
        <ele>3.5</ele>
        <time>2017-10-13T10:29:02Z</time>
      </trkpt>
      <trkpt lat="41.17037" lon="9.4455">
        <ele>3.02</ele>
        <time>2017-10-13T10:29:38Z</time>
      </trkpt>
      <trkpt lat="41.16986" lon="9.44644">
        <ele>3.5</ele>
        <time>2017-10-13T10:30:08Z</time>
      </trkpt>
      <trkpt lat="41.16927" lon="9.44755">
        <ele>2.54</ele>
        <time>2017-10-13T10:30:43Z</time>
      </trkpt>
      <trkpt lat="41.16888" lon="9.4485">
        <ele>3.5</ele>
        <time>2017-10-13T10:31:11Z</time>
      </trkpt>
      <trkpt lat="41.16847" lon="9.44972">
        <ele>3.98</ele>
        <time>2017-10-13T10:31:46Z</time>
      </trkpt>
      <trkpt lat="41.16798" lon="9.45103">
        <ele>3.98</ele>
        <time>2017-10-13T10:32:24Z</time>
      </trkpt>
      <trkpt lat="41.16742" lon="9.45258">
        <ele>1.58</ele>
        <time>2017-10-13T10:33:09Z</time>
      </trkpt>
      <trkpt lat="41.16699" lon="9.45384">
        <ele>2.06</ele>
        <time>2017-10-13T10:33:45Z</time>
      </trkpt>
      <trkpt lat="41.16656" lon="9.45506">
        <ele>1.58</ele>
        <time>2017-10-13T10:34:20Z</time>
      </trkpt>
      <trkpt lat="41.16612" lon="9.45632">
        <ele>3.02</ele>
        <time>2017-10-13T10:34:56Z</time>
      </trkpt>
      <trkpt lat="41.16585" lon="9.45764">
        <ele>4.94</ele>
        <time>2017-10-13T10:35:32Z</time>
      </trkpt>
      <trkpt lat="41.1656" lon="9.45894">
        <ele>4.46</ele>
        <time>2017-10-13T10:36:07Z</time>
      </trkpt>
      <trkpt lat="41.16543" lon="9.46006">
        <ele>4.94</ele>
        <time>2017-10-13T10:36:37Z</time>
      </trkpt>
      <trkpt lat="41.16523" lon="9.46127">
        <ele>5.42</ele>
        <time>2017-10-13T10:37:09Z</time>
      </trkpt>
      <trkpt lat="41.16501" lon="9.46256">
        <ele>4.46</ele>
        <time>2017-10-13T10:37:43Z</time>
      </trkpt>
      <trkpt lat="41.16475" lon="9.46407">
        <ele>3.5</ele>
        <time>2017-10-13T10:38:23Z</time>
      </trkpt>
      <trkpt lat="41.16454" lon="9.46545">
        <ele>3.02</ele>
        <time>2017-10-13T10:38:59Z</time>
      </trkpt>
      <trkpt lat="41.16434" lon="9.46672">
        <ele>3.5</ele>
        <time>2017-10-13T10:39:32Z</time>
      </trkpt>
      <trkpt lat="41.16417" lon="9.46776">
        <ele>3.5</ele>
        <time>2017-10-13T10:39:59Z</time>
      </trkpt>
      <trkpt lat="41.16397" lon="9.4691">
        <ele>3.02</ele>
        <time>2017-10-13T10:40:34Z</time>
      </trkpt>
      <trkpt lat="41.16374" lon="9.47049">
        <ele>2.54</ele>
        <time>2017-10-13T10:41:10Z</time>
      </trkpt>
      <trkpt lat="41.16357" lon="9.4718">
        <ele>3.02</ele>
        <time>2017-10-13T10:41:44Z</time>
      </trkpt>
      <trkpt lat="41.1634" lon="9.47301">
        <ele>3.98</ele>
        <time>2017-10-13T10:42:15Z</time>
      </trkpt>
      <trkpt lat="41.16323" lon="9.47413">
        <ele>4.94</ele>
        <time>2017-10-13T10:42:44Z</time>
      </trkpt>
      <trkpt lat="41.16304" lon="9.47536">
        <ele>5.42</ele>
        <time>2017-10-13T10:43:16Z</time>
      </trkpt>
      <trkpt lat="41.1629" lon="9.47629">
        <ele>4.46</ele>
        <time>2017-10-13T10:43:40Z</time>
      </trkpt>
      <trkpt lat="41.16269" lon="9.47765">
        <ele>4.94</ele>
        <time>2017-10-13T10:44:15Z</time>
      </trkpt>
      <trkpt lat="41.16249" lon="9.47889">
        <ele>3.98</ele>
        <time>2017-10-13T10:44:47Z</time>
      </trkpt>
      <trkpt lat="41.16228" lon="9.48025">
        <ele>3.02</ele>
        <time>2017-10-13T10:45:22Z</time>
      </trkpt>
      <trkpt lat="41.16208" lon="9.48158">
        <ele>3.98</ele>
        <time>2017-10-13T10:45:56Z</time>
      </trkpt>
      <trkpt lat="41.16188" lon="9.4829">
        <ele>4.46</ele>
        <time>2017-10-13T10:46:30Z</time>
      </trkpt>
      <trkpt lat="41.16176" lon="9.48397">
        <ele>4.46</ele>
        <time>2017-10-13T10:46:57Z</time>
      </trkpt>
      <trkpt lat="41.16167" lon="9.48512">
        <ele>4.46</ele>
        <time>2017-10-13T10:47:26Z</time>
      </trkpt>
      <trkpt lat="41.16156" lon="9.48617">
        <ele>3.98</ele>
        <time>2017-10-13T10:47:53Z</time>
      </trkpt>
      <trkpt lat="41.16144" lon="9.48736">
        <ele>4.46</ele>
        <time>2017-10-13T10:48:23Z</time>
      </trkpt>
      <trkpt lat="41.16132" lon="9.48851">
        <ele>2.54</ele>
        <time>2017-10-13T10:48:52Z</time>
      </trkpt>
      <trkpt lat="41.16133" lon="9.48928">
        <ele>2.54</ele>
        <time>2017-10-13T10:49:11Z</time>
      </trkpt>
      <trkpt lat="41.16136" lon="9.49035">
        <ele>3.02</ele>
        <time>2017-10-13T10:49:38Z</time>
      </trkpt>
      <trkpt lat="41.16135" lon="9.49145">
        <ele>3.02</ele>
        <time>2017-10-13T10:50:06Z</time>
      </trkpt>
      <trkpt lat="41.16116" lon="9.49253">
        <ele>2.06</ele>
        <time>2017-10-13T10:50:34Z</time>
      </trkpt>
      <trkpt lat="41.16105" lon="9.49349">
        <ele>3.02</ele>
        <time>2017-10-13T10:51:01Z</time>
      </trkpt>
      <trkpt lat="41.16094" lon="9.49407">
        <ele>3.02</ele>
        <time>2017-10-13T10:51:28Z</time>
      </trkpt>
      <trkpt lat="41.16085" lon="9.49447">
        <ele>3.02</ele>
        <time>2017-10-13T10:51:55Z</time>
      </trkpt>
      <trkpt lat="41.16076" lon="9.49479">
        <ele>2.54</ele>
        <time>2017-10-13T10:52:22Z</time>
      </trkpt>
      <trkpt lat="41.16067" lon="9.49509">
        <ele>2.54</ele>
        <time>2017-10-13T10:52:51Z</time>
      </trkpt>
      <trkpt lat="41.16059" lon="9.49532">
        <ele>3.02</ele>
        <time>2017-10-13T10:53:17Z</time>
      </trkpt>
      <trkpt lat="41.16052" lon="9.49552">
        <ele>3.5</ele>
        <time>2017-10-13T10:53:41Z</time>
      </trkpt>
      <trkpt lat="41.16041" lon="9.49576">
        <ele>3.02</ele>
        <time>2017-10-13T10:54:08Z</time>
      </trkpt>
      <trkpt lat="41.16032" lon="9.49613">
        <ele>4.46</ele>
        <time>2017-10-13T10:54:45Z</time>
      </trkpt>
      <trkpt lat="41.16024" lon="9.49637">
        <ele>4.94</ele>
        <time>2017-10-13T10:55:11Z</time>
      </trkpt>
      <trkpt lat="41.16014" lon="9.49664">
        <ele>3.98</ele>
        <time>2017-10-13T10:55:37Z</time>
      </trkpt>
      <trkpt lat="41.16004" lon="9.4971">
        <ele>2.06</ele>
        <time>2017-10-13T10:56:03Z</time>
      </trkpt>
      <trkpt lat="41.15996" lon="9.49769">
        <ele>2.06</ele>
        <time>2017-10-13T10:56:29Z</time>
      </trkpt>
      <trkpt lat="41.1599" lon="9.49834">
        <ele>1.58</ele>
        <time>2017-10-13T10:56:55Z</time>
      </trkpt>
      <trkpt lat="41.15979" lon="9.49927">
        <ele>2.06</ele>
        <time>2017-10-13T10:57:28Z</time>
      </trkpt>
      <trkpt lat="41.1597" lon="9.50004">
        <ele>2.54</ele>
        <time>2017-10-13T10:57:55Z</time>
      </trkpt>
      <trkpt lat="41.15962" lon="9.50088">
        <ele>2.54</ele>
        <time>2017-10-13T10:58:23Z</time>
      </trkpt>
      <trkpt lat="41.15955" lon="9.5017">
        <ele>2.54</ele>
        <time>2017-10-13T10:58:48Z</time>
      </trkpt>
      <trkpt lat="41.15948" lon="9.50236">
        <ele>1.58</ele>
        <time>2017-10-13T10:59:08Z</time>
      </trkpt>
      <trkpt lat="41.15941" lon="9.50311">
        <ele>3.02</ele>
        <time>2017-10-13T10:59:30Z</time>
      </trkpt>
      <trkpt lat="41.15932" lon="9.50402">
        <ele>3.98</ele>
        <time>2017-10-13T10:59:57Z</time>
      </trkpt>
      <trkpt lat="41.15924" lon="9.50489">
        <ele>4.94</ele>
        <time>2017-10-13T11:00:23Z</time>
      </trkpt>
      <trkpt lat="41.15918" lon="9.5056">
        <ele>3.98</ele>
        <time>2017-10-13T11:00:44Z</time>
      </trkpt>
      <trkpt lat="41.15914" lon="9.50633">
        <ele>3.02</ele>
        <time>2017-10-13T11:01:05Z</time>
      </trkpt>
      <trkpt lat="41.15909" lon="9.50729">
        <ele>1.58</ele>
        <time>2017-10-13T11:01:33Z</time>
      </trkpt>
      <trkpt lat="41.15904" lon="9.5082">
        <ele>2.06</ele>
        <time>2017-10-13T11:01:59Z</time>
      </trkpt>
      <trkpt lat="41.15901" lon="9.50902">
        <ele>2.54</ele>
        <time>2017-10-13T11:02:21Z</time>
      </trkpt>
      <trkpt lat="41.15893" lon="9.50999">
        <ele>3.02</ele>
        <time>2017-10-13T11:02:47Z</time>
      </trkpt>
      <trkpt lat="41.15882" lon="9.51099">
        <ele>2.54</ele>
        <time>2017-10-13T11:03:14Z</time>
      </trkpt>
      <trkpt lat="41.15872" lon="9.51194">
        <ele>3.02</ele>
        <time>2017-10-13T11:03:39Z</time>
      </trkpt>
      <trkpt lat="41.15863" lon="9.51297">
        <ele>3.02</ele>
        <time>2017-10-13T11:04:06Z</time>
      </trkpt>
      <trkpt lat="41.1586" lon="9.51378">
        <ele>2.06</ele>
        <time>2017-10-13T11:04:28Z</time>
      </trkpt>
      <trkpt lat="41.15851" lon="9.51456">
        <ele>1.58</ele>
        <time>2017-10-13T11:04:49Z</time>
      </trkpt>
      <trkpt lat="41.15843" lon="9.51561">
        <ele>1.1</ele>
        <time>2017-10-13T11:05:16Z</time>
      </trkpt>
      <trkpt lat="41.15841" lon="9.51647">
        <ele>1.1</ele>
        <time>2017-10-13T11:05:38Z</time>
      </trkpt>
      <trkpt lat="41.15834" lon="9.51747">
        <ele>-0.34</ele>
        <time>2017-10-13T11:06:04Z</time>
      </trkpt>
      <trkpt lat="41.15831" lon="9.51821">
        <ele>-0.34</ele>
        <time>2017-10-13T11:06:24Z</time>
      </trkpt>
      <trkpt lat="41.15824" lon="9.51873">
        <ele>1.1</ele>
        <time>2017-10-13T11:06:38Z</time>
      </trkpt>
      <trkpt lat="41.15819" lon="9.51962">
        <ele>1.1</ele>
        <time>2017-10-13T11:07:02Z</time>
      </trkpt>
      <trkpt lat="41.15821" lon="9.52037">
        <ele>1.1</ele>
        <time>2017-10-13T11:07:23Z</time>
      </trkpt>
      <trkpt lat="41.15822" lon="9.52116">
        <ele>0.62</ele>
        <time>2017-10-13T11:07:45Z</time>
      </trkpt>
      <trkpt lat="41.15825" lon="9.52224">
        <ele>1.58</ele>
        <time>2017-10-13T11:08:14Z</time>
      </trkpt>
      <trkpt lat="41.15821" lon="9.52333">
        <ele>-0.82</ele>
        <time>2017-10-13T11:08:43Z</time>
      </trkpt>
      <trkpt lat="41.15816" lon="9.52437">
        <ele>0.14</ele>
        <time>2017-10-13T11:09:11Z</time>
      </trkpt>
      <trkpt lat="41.15808" lon="9.52541">
        <ele>0.62</ele>
        <time>2017-10-13T11:09:40Z</time>
      </trkpt>
      <trkpt lat="41.15801" lon="9.52638">
        <ele>0.14</ele>
        <time>2017-10-13T11:10:05Z</time>
      </trkpt>
      <trkpt lat="41.15796" lon="9.52724">
        <ele>-0.82</ele>
        <time>2017-10-13T11:10:27Z</time>
      </trkpt>
      <trkpt lat="41.15789" lon="9.52837">
        <ele>-0.82</ele>
        <time>2017-10-13T11:10:56Z</time>
      </trkpt>
      <trkpt lat="41.15786" lon="9.52928">
        <ele>0.14</ele>
        <time>2017-10-13T11:11:20Z</time>
      </trkpt>
      <trkpt lat="41.1578" lon="9.53027">
        <ele>-0.82</ele>
        <time>2017-10-13T11:11:45Z</time>
      </trkpt>
      <trkpt lat="41.15776" lon="9.53095">
        <ele>-1.79</ele>
        <time>2017-10-13T11:12:03Z</time>
      </trkpt>
      <trkpt lat="41.15771" lon="9.53179">
        <ele>-1.3</ele>
        <time>2017-10-13T11:12:25Z</time>
      </trkpt>
      <trkpt lat="41.15767" lon="9.53258">
        <ele>-2.75</ele>
        <time>2017-10-13T11:12:46Z</time>
      </trkpt>
      <trkpt lat="41.15764" lon="9.53339">
        <ele>-1.79</ele>
        <time>2017-10-13T11:13:07Z</time>
      </trkpt>
      <trkpt lat="41.1576" lon="9.5342">
        <ele>-2.27</ele>
        <time>2017-10-13T11:13:28Z</time>
      </trkpt>
      <trkpt lat="41.15756" lon="9.53503">
        <ele>-3.23</ele>
        <time>2017-10-13T11:13:50Z</time>
      </trkpt>
      <trkpt lat="41.15752" lon="9.53589">
        <ele>-3.71</ele>
        <time>2017-10-13T11:14:12Z</time>
      </trkpt>
      <trkpt lat="41.15747" lon="9.53673">
        <ele>-3.23</ele>
        <time>2017-10-13T11:14:34Z</time>
      </trkpt>
      <trkpt lat="41.15742" lon="9.53764">
        <ele>-4.19</ele>
        <time>2017-10-13T11:14:58Z</time>
      </trkpt>
      <trkpt lat="41.15737" lon="9.53859">
        <ele>-4.19</ele>
        <time>2017-10-13T11:15:23Z</time>
      </trkpt>
      <trkpt lat="41.15732" lon="9.53937">
        <ele>-2.27</ele>
        <time>2017-10-13T11:15:44Z</time>
      </trkpt>
      <trkpt lat="41.15726" lon="9.54028">
        <ele>-2.27</ele>
        <time>2017-10-13T11:16:08Z</time>
      </trkpt>
      <trkpt lat="41.1572" lon="9.54126">
        <ele>-2.27</ele>
        <time>2017-10-13T11:16:34Z</time>
      </trkpt>
      <trkpt lat="41.15715" lon="9.54216">
        <ele>-2.27</ele>
        <time>2017-10-13T11:16:58Z</time>
      </trkpt>
      <trkpt lat="41.1571" lon="9.54286">
        <ele>-1.79</ele>
        <time>2017-10-13T11:17:17Z</time>
      </trkpt>
      <trkpt lat="41.15703" lon="9.54377">
        <ele>-2.75</ele>
        <time>2017-10-13T11:17:41Z</time>
      </trkpt>
      <trkpt lat="41.15697" lon="9.54468">
        <ele>-2.75</ele>
        <time>2017-10-13T11:18:05Z</time>
      </trkpt>
      <trkpt lat="41.15687" lon="9.54546">
        <ele>-4.67</ele>
        <time>2017-10-13T11:18:26Z</time>
      </trkpt>
      <trkpt lat="41.15667" lon="9.54621">
        <ele>-3.71</ele>
        <time>2017-10-13T11:18:47Z</time>
      </trkpt>
      <trkpt lat="41.15641" lon="9.54706">
        <ele>-3.71</ele>
        <time>2017-10-13T11:19:12Z</time>
      </trkpt>
      <trkpt lat="41.1562" lon="9.54775">
        <ele>-2.75</ele>
        <time>2017-10-13T11:19:34Z</time>
      </trkpt>
      <trkpt lat="41.156" lon="9.54835">
        <ele>-2.75</ele>
        <time>2017-10-13T11:19:54Z</time>
      </trkpt>
      <trkpt lat="41.15579" lon="9.54903">
        <ele>-2.27</ele>
        <time>2017-10-13T11:20:17Z</time>
      </trkpt>
      <trkpt lat="41.15562" lon="9.54952">
        <ele>-1.79</ele>
        <time>2017-10-13T11:20:38Z</time>
      </trkpt>
      <trkpt lat="41.15548" lon="9.54998">
        <ele>-1.3</ele>
        <time>2017-10-13T11:21:00Z</time>
      </trkpt>
      <trkpt lat="41.15531" lon="9.55041">
        <ele>-2.27</ele>
        <time>2017-10-13T11:21:24Z</time>
      </trkpt>
      <trkpt lat="41.15511" lon="9.55082">
        <ele>-2.75</ele>
        <time>2017-10-13T11:21:48Z</time>
      </trkpt>
      <trkpt lat="41.15488" lon="9.55126">
        <ele>-2.75</ele>
        <time>2017-10-13T11:22:14Z</time>
      </trkpt>
      <trkpt lat="41.15468" lon="9.55164">
        <ele>-2.75</ele>
        <time>2017-10-13T11:22:36Z</time>
      </trkpt>
      <trkpt lat="41.15456" lon="9.55185">
        <ele>-1.3</ele>
        <time>2017-10-13T11:22:48Z</time>
      </trkpt>
      <trkpt lat="41.15433" lon="9.55227">
        <ele>-2.27</ele>
        <time>2017-10-13T11:23:13Z</time>
      </trkpt>
      <trkpt lat="41.1541" lon="9.55273">
        <ele>-2.75</ele>
        <time>2017-10-13T11:23:38Z</time>
      </trkpt>
      <trkpt lat="41.15386" lon="9.5532">
        <ele>-2.27</ele>
        <time>2017-10-13T11:24:05Z</time>
      </trkpt>
      <trkpt lat="41.15365" lon="9.5536">
        <ele>-2.75</ele>
        <time>2017-10-13T11:24:28Z</time>
      </trkpt>
      <trkpt lat="41.15342" lon="9.55405">
        <ele>-1.79</ele>
        <time>2017-10-13T11:24:54Z</time>
      </trkpt>
      <trkpt lat="41.15323" lon="9.55446">
        <ele>-1.79</ele>
        <time>2017-10-13T11:25:17Z</time>
      </trkpt>
      <trkpt lat="41.153" lon="9.55487">
        <ele>-2.75</ele>
        <time>2017-10-13T11:25:40Z</time>
      </trkpt>
      <trkpt lat="41.15271" lon="9.55515">
        <ele>-3.23</ele>
        <time>2017-10-13T11:26:00Z</time>
      </trkpt>
      <trkpt lat="41.15231" lon="9.55559">
        <ele>-4.19</ele>
        <time>2017-10-13T11:26:21Z</time>
      </trkpt>
      <trkpt lat="41.15171" lon="9.55605">
        <ele>-3.23</ele>
        <time>2017-10-13T11:26:48Z</time>
      </trkpt>
      <trkpt lat="41.15119" lon="9.55653">
        <ele>-3.23</ele>
        <time>2017-10-13T11:27:13Z</time>
      </trkpt>
      <trkpt lat="41.15067" lon="9.55711">
        <ele>-3.71</ele>
        <time>2017-10-13T11:27:38Z</time>
      </trkpt>
      <trkpt lat="41.15008" lon="9.55772">
        <ele>-3.23</ele>
        <time>2017-10-13T11:28:04Z</time>
      </trkpt>
      <trkpt lat="41.1496" lon="9.55838">
        <ele>-2.27</ele>
        <time>2017-10-13T11:28:27Z</time>
      </trkpt>
      <trkpt lat="41.14904" lon="9.55925">
        <ele>-2.75</ele>
        <time>2017-10-13T11:28:53Z</time>
      </trkpt>
      <trkpt lat="41.14846" lon="9.5602">
        <ele>-3.23</ele>
        <time>2017-10-13T11:29:21Z</time>
      </trkpt>
      <trkpt lat="41.14797" lon="9.56091">
        <ele>-3.23</ele>
        <time>2017-10-13T11:29:43Z</time>
      </trkpt>
      <trkpt lat="41.14753" lon="9.56175">
        <ele>-2.75</ele>
        <time>2017-10-13T11:30:06Z</time>
      </trkpt>
      <trkpt lat="41.14711" lon="9.56233">
        <ele>-2.75</ele>
        <time>2017-10-13T11:30:24Z</time>
      </trkpt>
      <trkpt lat="41.14656" lon="9.56308">
        <ele>-2.75</ele>
        <time>2017-10-13T11:30:48Z</time>
      </trkpt>
      <trkpt lat="41.14597" lon="9.56385">
        <ele>-2.27</ele>
        <time>2017-10-13T11:31:12Z</time>
      </trkpt>
      <trkpt lat="41.14529" lon="9.56475">
        <ele>-2.27</ele>
        <time>2017-10-13T11:31:41Z</time>
      </trkpt>
      <trkpt lat="41.1447" lon="9.56561">
        <ele>-3.23</ele>
        <time>2017-10-13T11:32:07Z</time>
      </trkpt>
      <trkpt lat="41.14415" lon="9.56636">
        <ele>-3.71</ele>
        <time>2017-10-13T11:32:31Z</time>
      </trkpt>
      <trkpt lat="41.14363" lon="9.56708">
        <ele>-3.71</ele>
        <time>2017-10-13T11:32:54Z</time>
      </trkpt>
      <trkpt lat="41.14303" lon="9.56776">
        <ele>-3.23</ele>
        <time>2017-10-13T11:33:18Z</time>
      </trkpt>
      <trkpt lat="41.14238" lon="9.56847">
        <ele>-2.75</ele>
        <time>2017-10-13T11:33:44Z</time>
      </trkpt>
      <trkpt lat="41.14176" lon="9.5693">
        <ele>-3.23</ele>
        <time>2017-10-13T11:34:11Z</time>
      </trkpt>
      <trkpt lat="41.14122" lon="9.56997">
        <ele>-3.23</ele>
        <time>2017-10-13T11:34:33Z</time>
      </trkpt>
      <trkpt lat="41.14079" lon="9.57042">
        <ele>-2.75</ele>
        <time>2017-10-13T11:34:50Z</time>
      </trkpt>
      <trkpt lat="41.14006" lon="9.5712">
        <ele>-2.75</ele>
        <time>2017-10-13T11:35:20Z</time>
      </trkpt>
      <trkpt lat="41.13936" lon="9.57192">
        <ele>-2.75</ele>
        <time>2017-10-13T11:35:48Z</time>
      </trkpt>
      <trkpt lat="41.13868" lon="9.57262">
        <ele>-2.75</ele>
        <time>2017-10-13T11:36:15Z</time>
      </trkpt>
      <trkpt lat="41.13801" lon="9.57337">
        <ele>-3.23</ele>
        <time>2017-10-13T11:36:43Z</time>
      </trkpt>
      <trkpt lat="41.13742" lon="9.57415">
        <ele>-3.23</ele>
        <time>2017-10-13T11:37:08Z</time>
      </trkpt>
      <trkpt lat="41.13692" lon="9.57494">
        <ele>-3.23</ele>
        <time>2017-10-13T11:37:31Z</time>
      </trkpt>
      <trkpt lat="41.13662" lon="9.57548">
        <ele>-2.27</ele>
        <time>2017-10-13T11:37:46Z</time>
      </trkpt>
      <trkpt lat="41.13595" lon="9.57631">
        <ele>-2.75</ele>
        <time>2017-10-13T11:38:14Z</time>
      </trkpt>
      <trkpt lat="41.13531" lon="9.57689">
        <ele>-2.75</ele>
        <time>2017-10-13T11:38:39Z</time>
      </trkpt>
      <trkpt lat="41.13471" lon="9.57754">
        <ele>-2.75</ele>
        <time>2017-10-13T11:39:06Z</time>
      </trkpt>
      <trkpt lat="41.13427" lon="9.5782">
        <ele>-2.27</ele>
        <time>2017-10-13T11:39:29Z</time>
      </trkpt>
      <trkpt lat="41.13389" lon="9.57855">
        <ele>-2.27</ele>
        <time>2017-10-13T11:39:50Z</time>
      </trkpt>
      <trkpt lat="41.13356" lon="9.57903">
        <ele>-3.23</ele>
        <time>2017-10-13T11:40:17Z</time>
      </trkpt>
      <trkpt lat="41.13325" lon="9.5793">
        <ele>-3.23</ele>
        <time>2017-10-13T11:40:36Z</time>
      </trkpt>
      <trkpt lat="41.13282" lon="9.57979">
        <ele>-2.75</ele>
        <time>2017-10-13T11:40:58Z</time>
      </trkpt>
      <trkpt lat="41.13228" lon="9.58039">
        <ele>-2.75</ele>
        <time>2017-10-13T11:41:23Z</time>
      </trkpt>
      <trkpt lat="41.13173" lon="9.58089">
        <ele>-3.23</ele>
        <time>2017-10-13T11:41:47Z</time>
      </trkpt>
      <trkpt lat="41.13121" lon="9.58136">
        <ele>-3.23</ele>
        <time>2017-10-13T11:42:10Z</time>
      </trkpt>
      <trkpt lat="41.13069" lon="9.58181">
        <ele>-3.23</ele>
        <time>2017-10-13T11:42:31Z</time>
      </trkpt>
      <trkpt lat="41.13009" lon="9.5822">
        <ele>-3.71</ele>
        <time>2017-10-13T11:42:54Z</time>
      </trkpt>
      <trkpt lat="41.12936" lon="9.5827">
        <ele>-4.19</ele>
        <time>2017-10-13T11:43:24Z</time>
      </trkpt>
      <trkpt lat="41.12883" lon="9.5831">
        <ele>-2.75</ele>
        <time>2017-10-13T11:43:45Z</time>
      </trkpt>
      <trkpt lat="41.12821" lon="9.58346">
        <ele>-2.75</ele>
        <time>2017-10-13T11:44:08Z</time>
      </trkpt>
      <trkpt lat="41.12752" lon="9.5839">
        <ele>-2.27</ele>
        <time>2017-10-13T11:44:36Z</time>
      </trkpt>
      <trkpt lat="41.12693" lon="9.58418">
        <ele>-1.79</ele>
        <time>2017-10-13T11:45:02Z</time>
      </trkpt>
      <trkpt lat="41.1263" lon="9.58448">
        <ele>-2.27</ele>
        <time>2017-10-13T11:45:31Z</time>
      </trkpt>
      <trkpt lat="41.12563" lon="9.58485">
        <ele>-2.27</ele>
        <time>2017-10-13T11:46:01Z</time>
      </trkpt>
      <trkpt lat="41.12518" lon="9.58514">
        <ele>-1.79</ele>
        <time>2017-10-13T11:46:22Z</time>
      </trkpt>
      <trkpt lat="41.1246" lon="9.58555">
        <ele>-1.3</ele>
        <time>2017-10-13T11:46:46Z</time>
      </trkpt>
      <trkpt lat="41.12399" lon="9.58593">
        <ele>-1.3</ele>
        <time>2017-10-13T11:47:12Z</time>
      </trkpt>
      <trkpt lat="41.12332" lon="9.58637">
        <ele>-1.3</ele>
        <time>2017-10-13T11:47:41Z</time>
      </trkpt>
      <trkpt lat="41.12268" lon="9.58677">
        <ele>-0.34</ele>
        <time>2017-10-13T11:48:08Z</time>
      </trkpt>
      <trkpt lat="41.12197" lon="9.58718">
        <ele>-1.3</ele>
        <time>2017-10-13T11:48:40Z</time>
      </trkpt>
      <trkpt lat="41.12136" lon="9.58755">
        <ele>-0.82</ele>
        <time>2017-10-13T11:49:09Z</time>
      </trkpt>
      <trkpt lat="41.12076" lon="9.58791">
        <ele>-1.3</ele>
        <time>2017-10-13T11:49:38Z</time>
      </trkpt>
      <trkpt lat="41.12028" lon="9.5882">
        <ele>-0.82</ele>
        <time>2017-10-13T11:50:01Z</time>
      </trkpt>
      <trkpt lat="41.11974" lon="9.58855">
        <ele>-0.82</ele>
        <time>2017-10-13T11:50:26Z</time>
      </trkpt>
      <trkpt lat="41.11912" lon="9.58894">
        <ele>-0.82</ele>
        <time>2017-10-13T11:50:53Z</time>
      </trkpt>
      <trkpt lat="41.11851" lon="9.58933">
        <ele>-0.82</ele>
        <time>2017-10-13T11:51:20Z</time>
      </trkpt>
      <trkpt lat="41.11792" lon="9.58969">
        <ele>-1.3</ele>
        <time>2017-10-13T11:51:46Z</time>
      </trkpt>
      <trkpt lat="41.11734" lon="9.59005">
        <ele>-1.3</ele>
        <time>2017-10-13T11:52:11Z</time>
      </trkpt>
      <trkpt lat="41.11678" lon="9.5904">
        <ele>-0.34</ele>
        <time>2017-10-13T11:52:36Z</time>
      </trkpt>
      <trkpt lat="41.11623" lon="9.59077">
        <ele>-0.34</ele>
        <time>2017-10-13T11:53:01Z</time>
      </trkpt>
      <trkpt lat="41.11551" lon="9.59122">
        <ele>-0.82</ele>
        <time>2017-10-13T11:53:32Z</time>
      </trkpt>
      <trkpt lat="41.11489" lon="9.59163">
        <ele>-0.34</ele>
        <time>2017-10-13T11:53:59Z</time>
      </trkpt>
      <trkpt lat="41.1144" lon="9.59194">
        <ele>-0.34</ele>
        <time>2017-10-13T11:54:22Z</time>
      </trkpt>
      <trkpt lat="41.11375" lon="9.59238">
        <ele>0.14</ele>
        <time>2017-10-13T11:54:54Z</time>
      </trkpt>
      <trkpt lat="41.11317" lon="9.59278">
        <ele>-0.82</ele>
        <time>2017-10-13T11:55:21Z</time>
      </trkpt>
      <trkpt lat="41.11252" lon="9.5932">
        <ele>-0.34</ele>
        <time>2017-10-13T11:55:49Z</time>
      </trkpt>
      <trkpt lat="41.11193" lon="9.59357">
        <ele>0.14</ele>
        <time>2017-10-13T11:56:15Z</time>
      </trkpt>
      <trkpt lat="41.11133" lon="9.59396">
        <ele>0.14</ele>
        <time>2017-10-13T11:56:43Z</time>
      </trkpt>
      <trkpt lat="41.11077" lon="9.5943">
        <ele>-0.34</ele>
        <time>2017-10-13T11:57:10Z</time>
      </trkpt>
      <trkpt lat="41.11016" lon="9.59465">
        <ele>-1.3</ele>
        <time>2017-10-13T11:57:39Z</time>
      </trkpt>
      <trkpt lat="41.10962" lon="9.59496">
        <ele>-1.79</ele>
        <time>2017-10-13T11:58:04Z</time>
      </trkpt>
      <trkpt lat="41.10902" lon="9.59532">
        <ele>-1.3</ele>
        <time>2017-10-13T11:58:31Z</time>
      </trkpt>
      <trkpt lat="41.1084" lon="9.59567">
        <ele>-1.3</ele>
        <time>2017-10-13T11:58:58Z</time>
      </trkpt>
      <trkpt lat="41.1078" lon="9.59604">
        <ele>-1.3</ele>
        <time>2017-10-13T11:59:24Z</time>
      </trkpt>
      <trkpt lat="41.10714" lon="9.59644">
        <ele>-0.34</ele>
        <time>2017-10-13T11:59:52Z</time>
      </trkpt>
      <trkpt lat="41.10645" lon="9.59685">
        <ele>-0.34</ele>
        <time>2017-10-13T12:00:21Z</time>
      </trkpt>
      <trkpt lat="41.10588" lon="9.5972">
        <ele>-0.34</ele>
        <time>2017-10-13T12:00:47Z</time>
      </trkpt>
      <trkpt lat="41.10525" lon="9.59759">
        <ele>0.14</ele>
        <time>2017-10-13T12:01:16Z</time>
      </trkpt>
      <trkpt lat="41.10469" lon="9.59794">
        <ele>0.14</ele>
        <time>2017-10-13T12:01:41Z</time>
      </trkpt>
      <trkpt lat="41.10413" lon="9.59829">
        <ele>0.62</ele>
        <time>2017-10-13T12:02:06Z</time>
      </trkpt>
      <trkpt lat="41.10363" lon="9.5986">
        <ele>0.14</ele>
        <time>2017-10-13T12:02:28Z</time>
      </trkpt>
      <trkpt lat="41.10307" lon="9.59894">
        <ele>0.62</ele>
        <time>2017-10-13T12:02:52Z</time>
      </trkpt>
      <trkpt lat="41.10254" lon="9.59927">
        <ele>0.62</ele>
        <time>2017-10-13T12:03:15Z</time>
      </trkpt>
      <trkpt lat="41.10214" lon="9.59951">
        <ele>0.62</ele>
        <time>2017-10-13T12:03:33Z</time>
      </trkpt>
      <trkpt lat="41.10163" lon="9.59983">
        <ele>0.14</ele>
        <time>2017-10-13T12:03:56Z</time>
      </trkpt>
      <trkpt lat="41.10101" lon="9.60023">
        <ele>0.14</ele>
        <time>2017-10-13T12:04:21Z</time>
      </trkpt>
      <trkpt lat="41.10046" lon="9.6006">
        <ele>0.14</ele>
        <time>2017-10-13T12:04:42Z</time>
      </trkpt>
      <trkpt lat="41.09983" lon="9.60101">
        <ele>0.14</ele>
        <time>2017-10-13T12:05:06Z</time>
      </trkpt>
      <trkpt lat="41.09931" lon="9.60135">
        <ele>-0.34</ele>
        <time>2017-10-13T12:05:27Z</time>
      </trkpt>
      <trkpt lat="41.09877" lon="9.60172">
        <ele>0.14</ele>
        <time>2017-10-13T12:05:48Z</time>
      </trkpt>
      <trkpt lat="41.09824" lon="9.60206">
        <ele>-0.34</ele>
        <time>2017-10-13T12:06:10Z</time>
      </trkpt>
      <trkpt lat="41.09772" lon="9.6024">
        <ele>-0.34</ele>
        <time>2017-10-13T12:06:33Z</time>
      </trkpt>
      <trkpt lat="41.09717" lon="9.60276">
        <ele>-0.34</ele>
        <time>2017-10-13T12:06:56Z</time>
      </trkpt>
      <trkpt lat="41.09665" lon="9.60311">
        <ele>-0.82</ele>
        <time>2017-10-13T12:07:19Z</time>
      </trkpt>
      <trkpt lat="41.09615" lon="9.60344">
        <ele>-1.3</ele>
        <time>2017-10-13T12:07:40Z</time>
      </trkpt>
      <trkpt lat="41.09567" lon="9.60377">
        <ele>-0.34</ele>
        <time>2017-10-13T12:08:01Z</time>
      </trkpt>
      <trkpt lat="41.09511" lon="9.60415">
        <ele>-0.82</ele>
        <time>2017-10-13T12:08:25Z</time>
      </trkpt>
      <trkpt lat="41.09462" lon="9.60447">
        <ele>-0.82</ele>
        <time>2017-10-13T12:08:47Z</time>
      </trkpt>
      <trkpt lat="41.09411" lon="9.60483">
        <ele>-0.34</ele>
        <time>2017-10-13T12:09:09Z</time>
      </trkpt>
      <trkpt lat="41.09355" lon="9.60519">
        <ele>-0.82</ele>
        <time>2017-10-13T12:09:31Z</time>
      </trkpt>
      <trkpt lat="41.093" lon="9.60558">
        <ele>0.14</ele>
        <time>2017-10-13T12:09:53Z</time>
      </trkpt>
      <trkpt lat="41.0924" lon="9.60598">
        <ele>-0.34</ele>
        <time>2017-10-13T12:10:18Z</time>
      </trkpt>
      <trkpt lat="41.09185" lon="9.60636">
        <ele>-0.82</ele>
        <time>2017-10-13T12:10:41Z</time>
      </trkpt>
      <trkpt lat="41.09136" lon="9.6067">
        <ele>-0.34</ele>
        <time>2017-10-13T12:11:01Z</time>
      </trkpt>
      <trkpt lat="41.0908" lon="9.60708">
        <ele>0.14</ele>
        <time>2017-10-13T12:11:24Z</time>
      </trkpt>
      <trkpt lat="41.09025" lon="9.60746">
        <ele>0.14</ele>
        <time>2017-10-13T12:11:47Z</time>
      </trkpt>
      <trkpt lat="41.08971" lon="9.60784">
        <ele>-0.34</ele>
        <time>2017-10-13T12:12:09Z</time>
      </trkpt>
      <trkpt lat="41.08916" lon="9.60822">
        <ele>-0.34</ele>
        <time>2017-10-13T12:12:30Z</time>
      </trkpt>
      <trkpt lat="41.0887" lon="9.60854">
        <ele>-0.34</ele>
        <time>2017-10-13T12:12:49Z</time>
      </trkpt>
      <trkpt lat="41.08808" lon="9.60898">
        <ele>-0.82</ele>
        <time>2017-10-13T12:13:15Z</time>
      </trkpt>
      <trkpt lat="41.08753" lon="9.60936">
        <ele>-0.34</ele>
        <time>2017-10-13T12:13:37Z</time>
      </trkpt>
      <trkpt lat="41.08692" lon="9.60977">
        <ele>-0.34</ele>
        <time>2017-10-13T12:14:01Z</time>
      </trkpt>
      <trkpt lat="41.08638" lon="9.61014">
        <ele>0.14</ele>
        <time>2017-10-13T12:14:22Z</time>
      </trkpt>
      <trkpt lat="41.08586" lon="9.61051">
        <ele>-0.34</ele>
        <time>2017-10-13T12:14:42Z</time>
      </trkpt>
      <trkpt lat="41.08528" lon="9.61092">
        <ele>0.14</ele>
        <time>2017-10-13T12:15:05Z</time>
      </trkpt>
      <trkpt lat="41.08472" lon="9.6113">
        <ele>0.62</ele>
        <time>2017-10-13T12:15:26Z</time>
      </trkpt>
      <trkpt lat="41.08411" lon="9.61164">
        <ele>0.62</ele>
        <time>2017-10-13T12:15:49Z</time>
      </trkpt>
      <trkpt lat="41.0835" lon="9.61188">
        <ele>-0.34</ele>
        <time>2017-10-13T12:16:13Z</time>
      </trkpt>
      <trkpt lat="41.08302" lon="9.61201">
        <ele>-1.3</ele>
        <time>2017-10-13T12:16:33Z</time>
      </trkpt>
      <trkpt lat="41.08248" lon="9.61221">
        <ele>-1.3</ele>
        <time>2017-10-13T12:16:55Z</time>
      </trkpt>
      <trkpt lat="41.08195" lon="9.61236">
        <ele>-1.79</ele>
        <time>2017-10-13T12:17:18Z</time>
      </trkpt>
      <trkpt lat="41.08143" lon="9.61252">
        <ele>-0.34</ele>
        <time>2017-10-13T12:17:41Z</time>
      </trkpt>
      <trkpt lat="41.08102" lon="9.61265">
        <ele>-1.3</ele>
        <time>2017-10-13T12:17:58Z</time>
      </trkpt>
      <trkpt lat="41.08058" lon="9.61269">
        <ele>-0.82</ele>
        <time>2017-10-13T12:18:19Z</time>
      </trkpt>
      <trkpt lat="41.0802" lon="9.61271">
        <ele>-0.34</ele>
        <time>2017-10-13T12:18:40Z</time>
      </trkpt>
      <trkpt lat="41.07982" lon="9.61284">
        <ele>0.14</ele>
        <time>2017-10-13T12:19:01Z</time>
      </trkpt>
      <trkpt lat="41.07937" lon="9.61307">
        <ele>0.62</ele>
        <time>2017-10-13T12:19:22Z</time>
      </trkpt>
      <trkpt lat="41.07895" lon="9.61324">
        <ele>0.14</ele>
        <time>2017-10-13T12:19:42Z</time>
      </trkpt>
      <trkpt lat="41.07853" lon="9.61343">
        <ele>0.14</ele>
        <time>2017-10-13T12:20:03Z</time>
      </trkpt>
      <trkpt lat="41.07807" lon="9.61372">
        <ele>0.62</ele>
        <time>2017-10-13T12:20:24Z</time>
      </trkpt>
      <trkpt lat="41.07771" lon="9.61383">
        <ele>0.62</ele>
        <time>2017-10-13T12:20:42Z</time>
      </trkpt>
      <trkpt lat="41.07729" lon="9.61393">
        <ele>1.1</ele>
        <time>2017-10-13T12:21:06Z</time>
      </trkpt>
      <trkpt lat="41.07689" lon="9.61405">
        <ele>0.62</ele>
        <time>2017-10-13T12:21:31Z</time>
      </trkpt>
      <trkpt lat="41.07655" lon="9.61413">
        <ele>0.62</ele>
        <time>2017-10-13T12:21:52Z</time>
      </trkpt>
      <trkpt lat="41.07613" lon="9.61418">
        <ele>-0.82</ele>
        <time>2017-10-13T12:22:18Z</time>
      </trkpt>
      <trkpt lat="41.07568" lon="9.61418">
        <ele>-0.34</ele>
        <time>2017-10-13T12:22:46Z</time>
      </trkpt>
      <trkpt lat="41.07537" lon="9.61409">
        <ele>-0.82</ele>
        <time>2017-10-13T12:23:07Z</time>
      </trkpt>
      <trkpt lat="41.07494" lon="9.614">
        <ele>-1.3</ele>
        <time>2017-10-13T12:23:35Z</time>
      </trkpt>
      <trkpt lat="41.07462" lon="9.61388">
        <ele>-1.3</ele>
        <time>2017-10-13T12:23:56Z</time>
      </trkpt>
      <trkpt lat="41.07427" lon="9.61375">
        <ele>-1.3</ele>
        <time>2017-10-13T12:24:21Z</time>
      </trkpt>
      <trkpt lat="41.07392" lon="9.61363">
        <ele>-0.82</ele>
        <time>2017-10-13T12:24:45Z</time>
      </trkpt>
      <trkpt lat="41.07349" lon="9.6135">
        <ele>-0.34</ele>
        <time>2017-10-13T12:25:13Z</time>
      </trkpt>
      <trkpt lat="41.07307" lon="9.61333">
        <ele>-0.82</ele>
        <time>2017-10-13T12:25:41Z</time>
      </trkpt>
      <trkpt lat="41.07271" lon="9.61317">
        <ele>-0.34</ele>
        <time>2017-10-13T12:26:06Z</time>
      </trkpt>
      <trkpt lat="41.07228" lon="9.61301">
        <ele>-0.34</ele>
        <time>2017-10-13T12:26:34Z</time>
      </trkpt>
      <trkpt lat="41.0719" lon="9.61284">
        <ele>0.14</ele>
        <time>2017-10-13T12:26:58Z</time>
      </trkpt>
      <trkpt lat="41.07166" lon="9.61253">
        <ele>-0.34</ele>
        <time>2017-10-13T12:27:18Z</time>
      </trkpt>
      <trkpt lat="41.07147" lon="9.61213">
        <ele>-0.34</ele>
        <time>2017-10-13T12:27:39Z</time>
      </trkpt>
      <trkpt lat="41.07124" lon="9.61169">
        <ele>-0.34</ele>
        <time>2017-10-13T12:28:02Z</time>
      </trkpt>
      <trkpt lat="41.07101" lon="9.61124">
        <ele>-0.34</ele>
        <time>2017-10-13T12:28:26Z</time>
      </trkpt>
      <trkpt lat="41.07078" lon="9.61074">
        <ele>-0.34</ele>
        <time>2017-10-13T12:28:48Z</time>
      </trkpt>
      <trkpt lat="41.07067" lon="9.6103">
        <ele>-0.82</ele>
        <time>2017-10-13T12:29:03Z</time>
      </trkpt>
      <trkpt lat="41.07046" lon="9.60968">
        <ele>0.62</ele>
        <time>2017-10-13T12:29:23Z</time>
      </trkpt>
      <trkpt lat="41.07028" lon="9.60911">
        <ele>0.62</ele>
        <time>2017-10-13T12:29:41Z</time>
      </trkpt>
      <trkpt lat="41.07017" lon="9.6085">
        <ele>-0.82</ele>
        <time>2017-10-13T12:29:59Z</time>
      </trkpt>
      <trkpt lat="41.07008" lon="9.60755">
        <ele>-0.34</ele>
        <time>2017-10-13T12:30:26Z</time>
      </trkpt>
      <trkpt lat="41.07002" lon="9.60685">
        <ele>-0.34</ele>
        <time>2017-10-13T12:30:45Z</time>
      </trkpt>
      <trkpt lat="41.0699" lon="9.60601">
        <ele>-0.82</ele>
        <time>2017-10-13T12:31:10Z</time>
      </trkpt>
      <trkpt lat="41.06977" lon="9.60526">
        <ele>-0.34</ele>
        <time>2017-10-13T12:31:37Z</time>
      </trkpt>
      <trkpt lat="41.06969" lon="9.60456">
        <ele>-0.34</ele>
        <time>2017-10-13T12:32:03Z</time>
      </trkpt>
      <trkpt lat="41.06969" lon="9.60376">
        <ele>-0.82</ele>
        <time>2017-10-13T12:32:30Z</time>
      </trkpt>
      <trkpt lat="41.06973" lon="9.60297">
        <ele>-0.82</ele>
        <time>2017-10-13T12:32:58Z</time>
      </trkpt>
      <trkpt lat="41.0698" lon="9.60242">
        <ele>0.14</ele>
        <time>2017-10-13T12:33:20Z</time>
      </trkpt>
      <trkpt lat="41.06992" lon="9.60176">
        <ele>0.14</ele>
        <time>2017-10-13T12:33:50Z</time>
      </trkpt>
      <trkpt lat="41.07011" lon="9.60117">
        <ele>0.14</ele>
        <time>2017-10-13T12:34:21Z</time>
      </trkpt>
      <trkpt lat="41.07036" lon="9.60065">
        <ele>1.58</ele>
        <time>2017-10-13T12:34:51Z</time>
      </trkpt>
      <trkpt lat="41.07064" lon="9.60046">
        <ele>0.62</ele>
        <time>2017-10-13T12:35:21Z</time>
      </trkpt>
      <trkpt lat="41.07087" lon="9.60034">
        <ele>0.62</ele>
        <time>2017-10-13T12:35:49Z</time>
      </trkpt>
      <trkpt lat="41.07109" lon="9.60025">
        <ele>0.62</ele>
        <time>2017-10-13T12:36:18Z</time>
      </trkpt>
      <trkpt lat="41.07141" lon="9.60015">
        <ele>0.62</ele>
        <time>2017-10-13T12:36:51Z</time>
      </trkpt>
      <trkpt lat="41.07173" lon="9.60018">
        <ele>-0.34</ele>
        <time>2017-10-13T12:37:18Z</time>
      </trkpt>
      <trkpt lat="41.07208" lon="9.60031">
        <ele>0.14</ele>
        <time>2017-10-13T12:37:48Z</time>
      </trkpt>
      <trkpt lat="41.07233" lon="9.60041">
        <ele>0.62</ele>
        <time>2017-10-13T12:38:12Z</time>
      </trkpt>
      <trkpt lat="41.07257" lon="9.6005">
        <ele>0.62</ele>
        <time>2017-10-13T12:38:45Z</time>
      </trkpt>
      <trkpt lat="41.07273" lon="9.60059">
        <ele>1.1</ele>
        <time>2017-10-13T12:39:17Z</time>
      </trkpt>
      <trkpt lat="41.0729" lon="9.60077">
        <ele>1.1</ele>
        <time>2017-10-13T12:39:57Z</time>
      </trkpt>
      <trkpt lat="41.0729" lon="9.60078">
        <ele>1.1</ele>
        <time>2017-10-13T12:40:24Z</time>
      </trkpt>
      <trkpt lat="41.07286" lon="9.60069">
        <ele>1.58</ele>
        <time>2017-10-13T12:40:52Z</time>
      </trkpt>
      <trkpt lat="41.07282" lon="9.60065">
        <ele>1.1</ele>
        <time>2017-10-13T12:41:25Z</time>
      </trkpt>
      <trkpt lat="41.0728" lon="9.60067">
        <ele>1.1</ele>
        <time>2017-10-13T12:41:50Z</time>
      </trkpt>
      <trkpt lat="41.07278" lon="9.60071">
        <ele>1.1</ele>
        <time>2017-10-13T12:42:13Z</time>
      </trkpt>
      <trkpt lat="41.06928" lon="9.59528">
        <ele>-19.09</ele>
        <time>2017-10-13T15:25:19Z</time>
      </trkpt>
      <trkpt lat="41.06891" lon="9.59473">
        <ele>-1.79</ele>
        <time>2017-10-13T15:25:34Z</time>
      </trkpt>
      <trkpt lat="41.06863" lon="9.59422">
        <ele>-1.3</ele>
        <time>2017-10-13T15:25:48Z</time>
      </trkpt>
      <trkpt lat="41.06824" lon="9.59366">
        <ele>2.06</ele>
        <time>2017-10-13T15:26:06Z</time>
      </trkpt>
      <trkpt lat="41.06793" lon="9.59316">
        <ele>2.06</ele>
        <time>2017-10-13T15:26:25Z</time>
      </trkpt>
      <trkpt lat="41.06771" lon="9.59275">
        <ele>2.54</ele>
        <time>2017-10-13T15:26:44Z</time>
      </trkpt>
      <trkpt lat="41.06745" lon="9.59227">
        <ele>2.54</ele>
        <time>2017-10-13T15:27:06Z</time>
      </trkpt>
      <trkpt lat="41.06723" lon="9.59188">
        <ele>3.5</ele>
        <time>2017-10-13T15:27:22Z</time>
      </trkpt>
      <trkpt lat="41.06699" lon="9.59141">
        <ele>3.5</ele>
        <time>2017-10-13T15:27:39Z</time>
      </trkpt>
      <trkpt lat="41.06674" lon="9.59091">
        <ele>3.02</ele>
        <time>2017-10-13T15:27:57Z</time>
      </trkpt>
      <trkpt lat="41.06641" lon="9.59026">
        <ele>3.02</ele>
        <time>2017-10-13T15:28:21Z</time>
      </trkpt>
      <trkpt lat="41.06612" lon="9.58973">
        <ele>3.02</ele>
        <time>2017-10-13T15:28:42Z</time>
      </trkpt>
      <trkpt lat="41.06578" lon="9.58916">
        <ele>3.02</ele>
        <time>2017-10-13T15:29:05Z</time>
      </trkpt>
      <trkpt lat="41.06551" lon="9.5886">
        <ele>1.1</ele>
        <time>2017-10-13T15:29:25Z</time>
      </trkpt>
      <trkpt lat="41.0651" lon="9.58786">
        <ele>2.06</ele>
        <time>2017-10-13T15:29:51Z</time>
      </trkpt>
      <trkpt lat="41.06471" lon="9.5872">
        <ele>3.02</ele>
        <time>2017-10-13T15:30:18Z</time>
      </trkpt>
      <trkpt lat="41.06428" lon="9.5865">
        <ele>3.5</ele>
        <time>2017-10-13T15:30:48Z</time>
      </trkpt>
      <trkpt lat="41.06391" lon="9.58586">
        <ele>3.5</ele>
        <time>2017-10-13T15:31:15Z</time>
      </trkpt>
      <trkpt lat="41.06347" lon="9.58512">
        <ele>3.5</ele>
        <time>2017-10-13T15:31:46Z</time>
      </trkpt>
      <trkpt lat="41.06301" lon="9.58437">
        <ele>3.5</ele>
        <time>2017-10-13T15:32:18Z</time>
      </trkpt>
      <trkpt lat="41.06257" lon="9.5836">
        <ele>3.5</ele>
        <time>2017-10-13T15:32:49Z</time>
      </trkpt>
      <trkpt lat="41.06219" lon="9.5829">
        <ele>3.5</ele>
        <time>2017-10-13T15:33:20Z</time>
      </trkpt>
      <trkpt lat="41.0618" lon="9.58225">
        <ele>3.02</ele>
        <time>2017-10-13T15:33:49Z</time>
      </trkpt>
      <trkpt lat="41.06136" lon="9.5815">
        <ele>3.02</ele>
        <time>2017-10-13T15:34:23Z</time>
      </trkpt>
      <trkpt lat="41.06103" lon="9.58091">
        <ele>2.54</ele>
        <time>2017-10-13T15:34:53Z</time>
      </trkpt>
      <trkpt lat="41.06066" lon="9.58024">
        <ele>3.02</ele>
        <time>2017-10-13T15:35:26Z</time>
      </trkpt>
      <trkpt lat="41.06024" lon="9.57949">
        <ele>2.06</ele>
        <time>2017-10-13T15:35:58Z</time>
      </trkpt>
      <trkpt lat="41.05985" lon="9.57876">
        <ele>1.58</ele>
        <time>2017-10-13T15:36:27Z</time>
      </trkpt>
      <trkpt lat="41.05948" lon="9.57799">
        <ele>1.58</ele>
        <time>2017-10-13T15:36:56Z</time>
      </trkpt>
      <trkpt lat="41.05914" lon="9.57734">
        <ele>2.06</ele>
        <time>2017-10-13T15:37:25Z</time>
      </trkpt>
      <trkpt lat="41.05874" lon="9.57662">
        <ele>1.1</ele>
        <time>2017-10-13T15:37:54Z</time>
      </trkpt>
      <trkpt lat="41.0584" lon="9.57597">
        <ele>1.58</ele>
        <time>2017-10-13T15:38:18Z</time>
      </trkpt>
      <trkpt lat="41.058" lon="9.57523">
        <ele>2.54</ele>
        <time>2017-10-13T15:38:46Z</time>
      </trkpt>
      <trkpt lat="41.05765" lon="9.5746">
        <ele>2.54</ele>
        <time>2017-10-13T15:39:09Z</time>
      </trkpt>
      <trkpt lat="41.0572" lon="9.57375">
        <ele>3.02</ele>
        <time>2017-10-13T15:39:39Z</time>
      </trkpt>
      <trkpt lat="41.05679" lon="9.57301">
        <ele>3.5</ele>
        <time>2017-10-13T15:40:06Z</time>
      </trkpt>
      <trkpt lat="41.05641" lon="9.57233">
        <ele>3.5</ele>
        <time>2017-10-13T15:40:31Z</time>
      </trkpt>
      <trkpt lat="41.056" lon="9.57155">
        <ele>3.02</ele>
        <time>2017-10-13T15:40:57Z</time>
      </trkpt>
      <trkpt lat="41.0556" lon="9.5708">
        <ele>3.5</ele>
        <time>2017-10-13T15:41:21Z</time>
      </trkpt>
      <trkpt lat="41.05517" lon="9.56992">
        <ele>2.54</ele>
        <time>2017-10-13T15:41:48Z</time>
      </trkpt>
      <trkpt lat="41.05472" lon="9.56911">
        <ele>3.5</ele>
        <time>2017-10-13T15:42:13Z</time>
      </trkpt>
      <trkpt lat="41.05435" lon="9.56846">
        <ele>3.5</ele>
        <time>2017-10-13T15:42:34Z</time>
      </trkpt>
      <trkpt lat="41.05397" lon="9.56781">
        <ele>3.5</ele>
        <time>2017-10-13T15:42:57Z</time>
      </trkpt>
      <trkpt lat="41.05359" lon="9.56705">
        <ele>3.98</ele>
        <time>2017-10-13T15:43:21Z</time>
      </trkpt>
      <trkpt lat="41.05317" lon="9.5662">
        <ele>3.02</ele>
        <time>2017-10-13T15:43:47Z</time>
      </trkpt>
      <trkpt lat="41.05278" lon="9.56543">
        <ele>3.02</ele>
        <time>2017-10-13T15:44:11Z</time>
      </trkpt>
      <trkpt lat="41.05239" lon="9.56468">
        <ele>2.54</ele>
        <time>2017-10-13T15:44:34Z</time>
      </trkpt>
      <trkpt lat="41.05203" lon="9.56397">
        <ele>3.02</ele>
        <time>2017-10-13T15:44:55Z</time>
      </trkpt>
      <trkpt lat="41.05164" lon="9.56323">
        <ele>3.02</ele>
        <time>2017-10-13T15:45:18Z</time>
      </trkpt>
      <trkpt lat="41.05126" lon="9.56244">
        <ele>3.5</ele>
        <time>2017-10-13T15:45:42Z</time>
      </trkpt>
      <trkpt lat="41.05084" lon="9.56162">
        <ele>3.98</ele>
        <time>2017-10-13T15:46:08Z</time>
      </trkpt>
      <trkpt lat="41.05048" lon="9.56093">
        <ele>3.5</ele>
        <time>2017-10-13T15:46:32Z</time>
      </trkpt>
      <trkpt lat="41.05011" lon="9.56019">
        <ele>3.5</ele>
        <time>2017-10-13T15:46:57Z</time>
      </trkpt>
      <trkpt lat="41.04971" lon="9.55936">
        <ele>3.98</ele>
        <time>2017-10-13T15:47:24Z</time>
      </trkpt>
      <trkpt lat="41.04935" lon="9.55863">
        <ele>4.94</ele>
        <time>2017-10-13T15:47:46Z</time>
      </trkpt>
      <trkpt lat="41.04898" lon="9.5579">
        <ele>4.94</ele>
        <time>2017-10-13T15:48:10Z</time>
      </trkpt>
      <trkpt lat="41.04867" lon="9.55722">
        <ele>4.94</ele>
        <time>2017-10-13T15:48:32Z</time>
      </trkpt>
      <trkpt lat="41.04828" lon="9.55648">
        <ele>3.5</ele>
        <time>2017-10-13T15:48:58Z</time>
      </trkpt>
      <trkpt lat="41.04798" lon="9.55585">
        <ele>2.54</ele>
        <time>2017-10-13T15:49:17Z</time>
      </trkpt>
      <trkpt lat="41.04769" lon="9.55523">
        <ele>3.5</ele>
        <time>2017-10-13T15:49:35Z</time>
      </trkpt>
      <trkpt lat="41.04738" lon="9.55455">
        <ele>3.98</ele>
        <time>2017-10-13T15:49:54Z</time>
      </trkpt>
      <trkpt lat="41.04706" lon="9.55388">
        <ele>3.5</ele>
        <time>2017-10-13T15:50:13Z</time>
      </trkpt>
      <trkpt lat="41.04673" lon="9.5532">
        <ele>3.02</ele>
        <time>2017-10-13T15:50:33Z</time>
      </trkpt>
      <trkpt lat="41.04644" lon="9.55251">
        <ele>3.5</ele>
        <time>2017-10-13T15:50:52Z</time>
      </trkpt>
      <trkpt lat="41.04609" lon="9.55175">
        <ele>2.54</ele>
        <time>2017-10-13T15:51:13Z</time>
      </trkpt>
      <trkpt lat="41.04571" lon="9.55098">
        <ele>2.54</ele>
        <time>2017-10-13T15:51:34Z</time>
      </trkpt>
      <trkpt lat="41.0453" lon="9.5502">
        <ele>2.54</ele>
        <time>2017-10-13T15:51:57Z</time>
      </trkpt>
      <trkpt lat="41.04491" lon="9.54943">
        <ele>2.54</ele>
        <time>2017-10-13T15:52:20Z</time>
      </trkpt>
      <trkpt lat="41.0445" lon="9.54857">
        <ele>2.54</ele>
        <time>2017-10-13T15:52:46Z</time>
      </trkpt>
      <trkpt lat="41.04412" lon="9.54777">
        <ele>2.54</ele>
        <time>2017-10-13T15:53:09Z</time>
      </trkpt>
      <trkpt lat="41.0437" lon="9.54684">
        <ele>2.06</ele>
        <time>2017-10-13T15:53:36Z</time>
      </trkpt>
      <trkpt lat="41.04329" lon="9.54592">
        <ele>2.54</ele>
        <time>2017-10-13T15:54:02Z</time>
      </trkpt>
      <trkpt lat="41.04289" lon="9.54503">
        <ele>3.5</ele>
        <time>2017-10-13T15:54:26Z</time>
      </trkpt>
      <trkpt lat="41.04263" lon="9.54441">
        <ele>3.5</ele>
        <time>2017-10-13T15:54:44Z</time>
      </trkpt>
      <trkpt lat="41.04223" lon="9.5437">
        <ele>3.98</ele>
        <time>2017-10-13T15:55:06Z</time>
      </trkpt>
      <trkpt lat="41.04185" lon="9.54306">
        <ele>3.02</ele>
        <time>2017-10-13T15:55:26Z</time>
      </trkpt>
      <trkpt lat="41.04152" lon="9.54238">
        <ele>4.46</ele>
        <time>2017-10-13T15:55:44Z</time>
      </trkpt>
      <trkpt lat="41.04111" lon="9.54167">
        <ele>4.94</ele>
        <time>2017-10-13T15:56:04Z</time>
      </trkpt>
      <trkpt lat="41.04064" lon="9.54084">
        <ele>4.94</ele>
        <time>2017-10-13T15:56:28Z</time>
      </trkpt>
      <trkpt lat="41.04023" lon="9.54014">
        <ele>5.42</ele>
        <time>2017-10-13T15:56:48Z</time>
      </trkpt>
      <trkpt lat="41.03978" lon="9.53941">
        <ele>4.94</ele>
        <time>2017-10-13T15:57:09Z</time>
      </trkpt>
      <trkpt lat="41.03923" lon="9.53853">
        <ele>5.42</ele>
        <time>2017-10-13T15:57:36Z</time>
      </trkpt>
      <trkpt lat="41.03879" lon="9.53777">
        <ele>4.46</ele>
        <time>2017-10-13T15:57:58Z</time>
      </trkpt>
      <trkpt lat="41.03843" lon="9.53709">
        <ele>4.46</ele>
        <time>2017-10-13T15:58:17Z</time>
      </trkpt>
      <trkpt lat="41.03786" lon="9.53603">
        <ele>4.94</ele>
        <time>2017-10-13T15:58:46Z</time>
      </trkpt>
      <trkpt lat="41.03741" lon="9.53521">
        <ele>4.94</ele>
        <time>2017-10-13T15:59:08Z</time>
      </trkpt>
      <trkpt lat="41.03693" lon="9.53438">
        <ele>4.46</ele>
        <time>2017-10-13T15:59:31Z</time>
      </trkpt>
      <trkpt lat="41.03647" lon="9.53358">
        <ele>4.46</ele>
        <time>2017-10-13T15:59:53Z</time>
      </trkpt>
      <trkpt lat="41.03597" lon="9.53277">
        <ele>4.94</ele>
        <time>2017-10-13T16:00:17Z</time>
      </trkpt>
      <trkpt lat="41.03539" lon="9.53202">
        <ele>3.02</ele>
        <time>2017-10-13T16:00:42Z</time>
      </trkpt>
      <trkpt lat="41.03502" lon="9.53158">
        <ele>2.54</ele>
        <time>2017-10-13T16:00:59Z</time>
      </trkpt>
      <trkpt lat="41.03498" lon="9.53115">
        <ele>2.54</ele>
        <time>2017-10-13T16:01:14Z</time>
      </trkpt>
      <trkpt lat="41.03482" lon="9.53074">
        <ele>3.02</ele>
        <time>2017-10-13T16:01:33Z</time>
      </trkpt>
      <trkpt lat="41.03447" lon="9.53026">
        <ele>2.06</ele>
        <time>2017-10-13T16:01:57Z</time>
      </trkpt>
      <trkpt lat="41.03399" lon="9.52968">
        <ele>2.54</ele>
        <time>2017-10-13T16:02:22Z</time>
      </trkpt>
      <trkpt lat="41.0335" lon="9.52914">
        <ele>3.02</ele>
        <time>2017-10-13T16:02:46Z</time>
      </trkpt>
      <trkpt lat="41.0329" lon="9.52849">
        <ele>3.02</ele>
        <time>2017-10-13T16:03:15Z</time>
      </trkpt>
      <trkpt lat="41.03246" lon="9.52787">
        <ele>2.54</ele>
        <time>2017-10-13T16:03:39Z</time>
      </trkpt>
      <trkpt lat="41.03219" lon="9.52725">
        <ele>2.54</ele>
        <time>2017-10-13T16:04:02Z</time>
      </trkpt>
      <trkpt lat="41.03219" lon="9.52678">
        <ele>2.06</ele>
        <time>2017-10-13T16:04:23Z</time>
      </trkpt>
      <trkpt lat="41.03234" lon="9.52633">
        <ele>2.06</ele>
        <time>2017-10-13T16:04:50Z</time>
      </trkpt>
      <trkpt lat="41.03258" lon="9.52609">
        <ele>2.54</ele>
        <time>2017-10-13T16:05:11Z</time>
      </trkpt>
      <trkpt lat="41.03292" lon="9.52579">
        <ele>1.58</ele>
        <time>2017-10-13T16:05:39Z</time>
      </trkpt>
      <trkpt lat="41.03339" lon="9.52541">
        <ele>1.58</ele>
        <time>2017-10-13T16:06:15Z</time>
      </trkpt>
      <trkpt lat="41.03373" lon="9.52506">
        <ele>2.06</ele>
        <time>2017-10-13T16:06:46Z</time>
      </trkpt>
      <trkpt lat="41.03366" lon="9.52472">
        <ele>4.46</ele>
        <time>2017-10-13T16:07:11Z</time>
      </trkpt>
      <trkpt lat="41.03342" lon="9.52456">
        <ele>4.46</ele>
        <time>2017-10-13T16:07:35Z</time>
      </trkpt>
      <trkpt lat="41.03306" lon="9.52449">
        <ele>4.46</ele>
        <time>2017-10-13T16:08:08Z</time>
      </trkpt>
      <trkpt lat="41.03272" lon="9.52448">
        <ele>4.94</ele>
        <time>2017-10-13T16:08:39Z</time>
      </trkpt>
      <trkpt lat="41.03243" lon="9.52454">
        <ele>6.39</ele>
        <time>2017-10-13T16:09:05Z</time>
      </trkpt>
      <trkpt lat="41.03221" lon="9.52456">
        <ele>6.39</ele>
        <time>2017-10-13T16:09:29Z</time>
      </trkpt>
      <trkpt lat="41.03223" lon="9.52455">
        <ele>5.91</ele>
        <time>2017-10-13T16:09:33Z</time>
      </trkpt>
      <trkpt lat="41.0324" lon="9.52434">
        <ele>3.98</ele>
        <time>2017-10-13T16:09:57Z</time>
      </trkpt>
      <trkpt lat="41.03239" lon="9.52408">
        <ele>5.42</ele>
        <time>2017-10-13T16:10:19Z</time>
      </trkpt>
      <trkpt lat="41.03239" lon="9.52407">
        <ele>5.42</ele>
        <time>2017-10-13T16:10:20Z</time>
      </trkpt>
      <trkpt lat="41.03253" lon="9.52392">
        <ele>6.87</ele>
        <time>2017-10-13T16:10:44Z</time>
      </trkpt>
      <trkpt lat="41.03255" lon="9.52392">
        <ele>5.91</ele>
        <time>2017-10-13T16:11:10Z</time>
      </trkpt>
      <trkpt lat="41.03256" lon="9.52391">
        <ele>5.91</ele>
        <time>2017-10-13T16:11:41Z</time>
      </trkpt>
      <trkpt lat="41.03257" lon="9.52392">
        <ele>5.91</ele>
        <time>2017-10-13T16:12:07Z</time>
      </trkpt>
      <trkpt lat="41.03257" lon="9.52391">
        <ele>5.42</ele>
        <time>2017-10-13T16:12:30Z</time>
      </trkpt>
      <trkpt lat="41.03257" lon="9.52391">
        <ele>5.42</ele>
        <time>2017-10-13T16:12:57Z</time>
      </trkpt>
      <trkpt lat="41.03258" lon="9.5239">
        <ele>5.42</ele>
        <time>2017-10-13T16:13:32Z</time>
      </trkpt>
      <trkpt lat="41.03258" lon="9.52389">
        <ele>4.46</ele>
        <time>2017-10-13T16:14:02Z</time>
      </trkpt>
      <trkpt lat="41.03258" lon="9.52389">
        <ele>4.46</ele>
        <time>2017-10-13T16:14:30Z</time>
      </trkpt>
      <trkpt lat="41.0326" lon="9.52389">
        <ele>3.5</ele>
        <time>2017-10-13T16:14:57Z</time>
      </trkpt>
      <trkpt lat="41.0326" lon="9.52389">
        <ele>3.02</ele>
        <time>2017-10-13T16:15:23Z</time>
      </trkpt>
      <trkpt lat="41.0326" lon="9.52389">
        <ele>3.5</ele>
        <time>2017-10-13T16:15:48Z</time>
      </trkpt>
      <trkpt lat="41.0326" lon="9.52389">
        <ele>3.5</ele>
        <time>2017-10-13T16:16:16Z</time>
      </trkpt>
      <trkpt lat="41.03259" lon="9.5239">
        <ele>3.02</ele>
        <time>2017-10-13T16:16:43Z</time>
      </trkpt>
      <trkpt lat="41.03259" lon="9.5239">
        <ele>3.5</ele>
        <time>2017-10-13T16:17:00Z</time>
      </trkpt>
    </trkseg>
  </trk>
</gpx>